메인 페이지
METAR-TAF:

METAR-TAF

공항 :

오데사, 우크라이나

위도: 46-26N, 경도: 030-46E, 고도: 42m

현재 날씨관측

예보는 18분 전, 04:47시(UTC)에 발표되었습니다.
6kt
온도 0°C
습도 100%
기압 1022 hPa
시정: 4900m
고도 400ft 상공 구름 많음
고도 2000ft 상공 흐림
약한눈, 박무

METAR: UKOO 150447Z 36003MPS 4900 -SN BR BKN004 OVC020 00/00 Q1022 R34/290050 NOSIG

시각: 07:05 (05:05 UTC)

예보

예보는 6 시간 0분 전, 23:05시(UTC)에 발표되었습니다.
예보 대상 시간: 15일 00시부터 15일 24시까지 (UTC)
북북동6kt
시정: 2100m
고도 300ft 상공 구름 보통
고도 700ft 상공 구름 많음
고도 1400ft 상공 구름 많음, 적란운.
약한소낙눈, 박무
일시적
15일 00시부터 15일 06시까지 (UTC)
시정: 0300m
고도 200ft 상공
(약한) 결빙, 비, 눈, 어는 안개
전환 중
15일 06시부터 15일 07시까지 (UTC)
북동12kt, 순간 최대 풍속 23kt

TAF: UKOO 142305Z 1500/1524 02003MPS 2100 -SHSN BR SCT003 BKN007 BKN014CB TX01/1507Z TNM01/1500Z TEMPO 1500/1506 0300 -FZRASN FZFG VV002 BECMG 1506/1507 04006G12MPS

4,000개 이상의 공항 관측 자료 및 예보 (METAR 및 TAF 보고).

지도상에서 검색 가능한 기상관측소가 노란 점과 빨간 점으로 표시되어 있습니다.

기상관측소 명을 보려면 표시 위로 마우스를 이동하세요.

날씨 관측과 예보를 보려면 클릭하세요.

지도 변경 : 확대하려면 엑스 표시가 있는 녹색 버튼, 축소하려면 빼기 표시가 있는 녹색 버튼, 다음 페이지의 지도를 보려면 녹색 화살표를 클릭하세요.


METAR-TAF: